Time;durP1;ratioP1;P1;durP2;ratioP2;P2;SDS_P1;SDS_P2;PMS_P1;PMS_P2;Temp;Humidity;BMP_temperature;BMP_pressure;BME280_temperature;BME280_humidity;BME280_pressure;Samples;Min_cycle;Max_cycle;Signal;HPM_P1;HPM_P2
2020/12/19 00:00:33;;;;;;;22.63;6.93;;;2.00;83.50;;;-0.17;85.11;96595.72;5014669;28;20517;-65
2020/12/19 00:02:59;;;;;;;13.45;7.28;;;2.00;84.00;;;-0.15;84.83;96588.69;4993991;28;20034;-65
2020/12/19 00:05:25;;;;;;;16.33;7.30;;;2.10;84.30;;;-0.14;85.11;96586.91;4995100;28;20053;-65
2020/12/19 00:07:50;;;;;;;18.35;7.50;;;2.10;84.10;;;-0.16;85.27;96579.28;5011865;28;20136;-65
2020/12/19 00:10:16;;;;;;;21.73;7.97;;;2.10;84.00;;;-0.14;85.05;96577.41;5010253;28;20135;-64
2020/12/19 00:12:45;;;;;;;13.73;7.38;;;2.10;84.00;;;-0.13;85.44;96568.69;4991523;28;20509;-65
2020/12/19 00:15:16;;;;;;;17.27;7.38;;;2.20;84.00;;;-0.14;85.22;96567.06;5009154;28;20056;-65
2020/12/19 00:17:42;;;;;;;30.10;6.77;;;2.10;84.20;;;-0.13;84.91;96562.72;5009424;28;20033;-64
2020/12/19 00:20:08;;;;;;;22.52;7.07;;;2.10;83.80;;;-0.21;85.38;96571.03;5007921;28;20099;-65
2020/12/19 00:22:34;;;;;;;13.98;6.57;;;1.90;84.20;;;-0.20;85.29;96567.50;4992547;28;20389;-65
2020/12/19 00:25:00;;;;;;;13.65;6.35;;;2.00;84.20;;;-0.22;85.35;96559.03;5010346;28;20126;-64
2020/12/19 00:27:25;;;;;;;13.02;6.57;;;2.00;84.10;;;-0.21;85.22;96560.69;5002818;28;20216;-64
2020/12/19 00:29:51;;;;;;;17.00;6.95;;;2.00;83.90;;;-0.22;85.01;96548.69;5013526;28;20054;-64
2020/12/19 00:32:17;;;;;;;34.20;7.28;;;2.00;84.10;;;-0.27;85.24;96545.59;4984516;28;20037;-65
2020/12/19 00:34:42;;;;;;;12.25;6.68;;;1.80;84.00;;;-0.28;85.16;96541.38;4992556;28;20095;-65
2020/12/19 00:37:08;;;;;;;10.68;6.68;;;1.90;84.20;;;-0.29;84.74;96544.88;4996231;28;20042;-65
2020/12/19 00:39:33;;;;;;;29.30;7.38;;;1.90;84.20;;;-0.28;85.49;96543.97;4981525;28;20029;-65
2020/12/19 00:41:59;;;;;;;11.23;6.53;;;1.90;84.00;;;-0.32;84.98;96548.53;5011262;28;20045;-65
2020/12/19 00:44:24;;;;;;;25.23;6.25;;;1.80;84.20;;;-0.33;84.98;96536.53;5009548;28;20069;-64
2020/12/19 00:46:51;;;;;;;14.65;5.72;;;1.90;84.00;;;-0.34;85.02;96540.06;5005233;28;20081;-64
2020/12/19 00:49:16;;;;;;;20.77;6.07;;;1.90;83.90;;;-0.36;85.14;96535.94;5011412;28;20042;-64
2020/12/19 00:51:42;;;;;;;15.85;5.82;;;1.80;83.80;;;-0.38;85.22;96537.81;5011056;28;20489;-65
2020/12/19 00:54:08;;;;;;;12.48;6.20;;;1.80;84.00;;;-0.37;85.26;96539.47;4980304;28;21656;-65
2020/12/19 00:56:33;;;;;;;9.02;6.15;;;1.90;84.10;;;-0.35;85.31;96537.59;5044068;22;20096;-69
2020/12/19 00:58:59;;;;;;;13.07;6.32;;;1.90;84.20;;;-0.36;85.40;96546.28;5049986;28;20558;-69
2020/12/19 01:01:25;;;;;;;9.27;6.72;;;1.90;84.10;;;-0.32;85.43;96548.53;5045828;28;20120;-70
2020/12/19 01:03:55;;;;;;;8.40;5.82;;;2.00;84.20;;;-0.29;85.76;96542.31;5058607;28;20316;-70
2020/12/19 01:06:22;;;;;;;13.32;6.50;;;2.10;84.20;;;-0.30;85.47;96540.66;5039726;28;20519;-71
2020/12/19 01:08:49;;;;;;;11.95;6.82;;;2.00;84.20;;;-0.28;85.28;96538.78;5036230;28;20177;-70
2020/12/19 01:11:15;;;;;;;13.50;6.75;;;2.00;84.20;;;-0.29;85.75;96542.31;5053440;28;20048;-70
2020/12/19 01:13:42;;;;;;;12.18;6.90;;;2.10;84.20;;;-0.28;85.64;96538.78;5068539;28;20032;-71
2020/12/19 01:16:08;;;;;;;11.07;6.65;;;2.10;84.20;;;-0.28;85.65;96549.13;5041891;28;20120;-70
2020/12/19 01:18:35;;;;;;;9.98;6.32;;;2.10;84.10;;;-0.23;85.25;96551.38;5048970;28;20119;-71
2020/12/19 01:21:01;;;;;;;17.63;6.50;;;2.10;84.20;;;-0.21;85.19;96550.34;5039942;28;20127;-70
2020/12/19 01:23:27;;;;;;;11.68;6.55;;;2.10;84.20;;;-0.18;85.29;96544.94;5041761;28;20475;-71
2020/12/19 01:25:52;;;;;;;11.35;6.70;;;2.10;84.00;;;-0.17;85.17;96541.44;5052249;28;20063;-71
2020/12/19 01:28:18;;;;;;;19.02;7.05;;;2.20;84.00;;;-0.15;85.48;96539.56;5053530;28;20085;-71
2020/12/19 01:30:43;;;;;;;13.80;6.35;;;2.20;84.00;;;-0.13;85.26;96532.50;5068551;28;20143;-71
2020/12/19 01:33:09;;;;;;;14.02;6.65;;;2.20;84.10;;;-0.14;85.77;96533.44;5076090;28;20041;-70
2020/12/19 01:35:35;;;;;;;14.00;7.20;;;2.20;84.00;;;-0.12;85.31;96523.00;5045700;28;20041;-70
2020/12/19 01:38:00;;;;;;;10.15;6.28;;;2.20;83.80;;;-0.11;85.21;96527.22;5069078;28;20039;-70
2020/12/19 01:40:26;;;;;;;12.45;6.70;;;2.20;83.80;;;-0.09;85.88;96528.75;5052545;28;20184;-70
2020/12/19 01:42:51;;;;;;;12.85;6.55;;;2.20;83.80;;;-0.09;85.45;96518.41;5077150;28;20043;-70
2020/12/19 01:45:17;;;;;;;14.18;7.03;;;2.30;83.80;;;-0.09;85.83;96523.59;5079380;28;20051;-70
2020/12/19 01:47:42;;;;;;;10.10;6.22;;;2.30;83.70;;;-0.14;85.71;96515.34;5051906;28;20046;-71
2020/12/19 01:50:08;;;;;;;17.85;6.35;;;2.10;83.50;;;-0.20;85.38;96523.56;5037250;28;20032;-71
2020/12/19 01:52:34;;;;;;;12.50;5.95;;;1.90;84.10;;;-0.24;85.66;96519.53;5051944;28;20047;-71
2020/12/19 01:55:01;;;;;;;12.02;5.85;;;1.90;83.90;;;-0.31;85.69;96514.00;5036870;28;20073;-71
2020/12/19 01:57:28;;;;;;;10.75;5.90;;;1.80;83.60;;;-0.30;85.77;96519.97;5080654;28;20028;-71
2020/12/19 01:59:54;;;;;;;14.98;5.82;;;1.90;83.80;;;-0.33;85.59;96504.69;5031989;28;20032;-71
2020/12/19 02:02:22;;;;;;;9.80;6.22;;;1.90;83.70;;;-0.32;85.90;96511.53;5064962;28;20449;-71
2020/12/19 02:04:48;;;;;;;10.57;6.25;;;2.00;84.00;;;-0.31;85.33;96510.56;5039185;28;20032;-71
2020/12/19 02:07:13;;;;;;;9.20;5.53;;;2.00;83.90;;;-0.27;85.55;96506.81;5034053;28;20055;-71
2020/12/19 02:09:39;;;;;;;14.07;5.90;;;2.10;83.70;;;-0.32;85.55;96502.00;5035637;28;20032;-71
2020/12/19 02:12:06;;;;;;;27.98;6.65;;;1.90;83.60;;;-0.36;85.66;96499.75;5030404;28;20042;-70
2020/12/19 02:14:32;;;;;;;7.65;5.30;;;1.80;83.80;;;-0.36;85.34;96508.34;5074207;28;20430;-71
2020/12/19 02:17:03;;;;;;;8.07;5.40;;;1.90;83.90;;;-0.36;85.63;96499.75;5058200;28;20063;-71
2020/12/19 02:19:29;;;;;;;41.90;6.00;;;1.90;83.90;;;-0.35;85.57;96502.22;5043292;28;20044;-71
2020/12/19 02:21:54;;;;;;;9.55;5.03;;;1.90;83.80;;;-0.37;85.61;96496.34;5076252;28;20513;-70
2020/12/19 02:24:20;;;;;;;7.55;5.20;;;1.80;83.60;;;-0.36;85.38;96498.00;5075229;28;20048;-71
2020/12/19 02:26:50;;;;;;;6.70;4.68;;;1.90;83.20;;;-0.38;85.47;96504.22;5060385;28;20040;-71
2020/12/19 02:29:16;;;;;;;8.02;4.70;;;1.90;83.00;;;-0.40;85.00;96501.75;5039894;28;20089;-70
2020/12/19 02:31:42;;;;;;;6.85;5.03;;;1.90;83.00;;;-0.43;85.20;96501.97;5042150;28;20044;-70
2020/12/19 02:34:08;;;;;;;8.23;5.63;;;1.90;83.10;;;-0.44;85.36;96504.66;5042659;28;20062;-71
2020/12/19 02:36:34;;;;;;;11.50;5.70;;;1.80;83.20;;;-0.52;85.54;96494.06;5074430;28;20097;-70
2020/12/19 02:39:00;;;;;;;13.38;5.72;;;1.60;83.60;;;-0.56;85.35;96497.78;5052844;28;20032;-69
2020/12/19 02:41:26;;;;;;;18.88;5.22;;;1.60;83.60;;;-0.59;85.03;96492.84;5035888;28;20046;-70
2020/12/19 02:43:55;;;;;;;8.15;4.90;;;1.60;83.50;;;-0.66;85.37;96488.13;5076139;28;20032;-70
2020/12/19 02:46:21;;;;;;;10.77;5.40;;;1.50;83.80;;;-0.66;85.10;96488.13;5059518;28;20119;-70
2020/12/19 02:48:47;;;;;;;8.35;4.60;;;1.50;83.70;;;-0.66;85.36;96488.13;5041969;28;20119;-70
2020/12/19 02:51:13;;;;;;;7.65;5.00;;;1.60;83.80;;;-0.65;85.23;96488.97;5071853;28;20036;-70
2020/12/19 02:53:39;;;;;;;9.10;5.18;;;1.60;83.70;;;-0.63;85.31;96492.25;5029616;28;20395;-70
2020/12/19 02:56:05;;;;;;;11.00;5.80;;;1.60;83.80;;;-0.61;85.70;96485.22;5092110;28;20048;-71
2020/12/19 02:58:30;;;;;;;10.98;5.53;;;1.60;83.70;;;-0.61;85.68;96485.22;5023989;28;20510;-70
2020/12/19 03:00:56;;;;;;;7.53;4.95;;;1.70;83.70;;;-0.58;85.32;96485.00;5077656;28;20032;-70
2020/12/19 03:03:21;;;;;;;7.22;4.93;;;1.80;83.60;;;-0.55;85.18;96478.78;5058109;28;20032;-70
2020/12/19 03:05:47;;;;;;;8.60;5.00;;;1.80;83.50;;;-0.53;85.25;96476.91;5056152;28;20037;-68
2020/12/19 03:08:12;;;;;;;8.25;5.05;;;1.80;83.30;;;-0.53;85.48;96488.06;5073401;28;20587;-68
2020/12/19 03:10:38;;;;;;;25.98;5.75;;;1.80;83.30;;;-0.58;85.17;96489.34;5073881;28;20039;-68
2020/12/19 03:13:03;;;;;;;16.60;6.07;;;1.60;83.40;;;-0.60;85.18;96488.63;5053469;28;20200;-67
2020/12/19 03:15:29;;;;;;;7.97;5.13;;;1.60;83.60;;;-0.64;85.38;96481.09;5090816;28;20164;-68
2020/12/19 03:17:55;;;;;;;8.00;5.15;;;1.70;83.70;;;-0.60;85.25;96486.88;5038487;28;20147;-67
2020/12/19 03:20:20;;;;;;;8.48;4.97;;;1.70;83.70;;;-0.56;85.62;96487.47;5037651;28;20032;-65
2020/12/19 03:22:46;;;;;;;6.88;4.85;;;1.80;83.60;;;-0.53;85.61;96487.22;5055187;28;20032;-66
2020/12/19 03:25:11;;;;;;;20.77;5.70;;;1.80;83.60;;;-0.53;85.32;96482.88;5069218;28;20674;-66
2020/12/19 03:27:37;;;;;;;12.77;5.82;;;1.80;83.20;;;-0.54;85.17;96485.59;5033564;28;20320;-65
2020/12/19 03:30:04;;;;;;;11.82;4.97;;;1.80;83.30;;;-0.55;85.32;96478.78;5064853;28;20041;-67
2020/12/19 03:32:29;;;;;;;8.38;5.40;;;1.80;83.20;;;-0.53;85.08;96471.72;5047106;28;20072;-67
2020/12/19 03:34:55;;;;;;;9.35;4.82;;;1.80;83.20;;;-0.50;85.36;96481.84;5037843;28;20058;-68
2020/12/19 03:37:20;;;;;;;11.85;5.63;;;1.80;83.30;;;-0.54;85.52;96478.66;5053936;28;20043;-71
2020/12/19 03:39:46;;;;;;;13.10;5.70;;;1.80;83.30;;;-0.50;85.27;96485.25;5017563;28;20029;-72
2020/12/19 03:42:11;;;;;;;8.95;5.32;;;1.90;83.50;;;-0.53;85.61;96476.91;5071032;28;20043;-72
2020/12/19 03:44:37;;;;;;;12.13;5.80;;;1.90;83.50;;;-0.49;85.12;96484.31;5038025;28;20126;-74
2020/12/19 03:47:02;;;;;;;9.07;5.80;;;1.90;83.50;;;-0.50;85.19;96481.84;5054441;28;20028;-72
2020/12/19 03:49:28;;;;;;;9.70;6.22;;;1.90;83.60;;;-0.45;85.56;96492.69;5054716;28;20036;-72
2020/12/19 03:51:54;;;;;;;8.77;5.88;;;1.90;83.50;;;-0.43;85.65;96483.06;5021589;28;20511;-72
2020/12/19 03:54:20;;;;;;;14.10;6.10;;;1.90;83.50;;;-0.43;85.72;96483.06;5089431;28;20032;-72
2020/12/19 03:56:46;;;;;;;11.40;6.13;;;1.90;83.50;;;-0.44;85.69;96481.41;5070373;28;20035;-72
2020/12/19 03:59:12;;;;;;;11.20;5.93;;;1.90;83.50;;;-0.43;85.71;96485.66;5043654;28;20587;-72
2020/12/19 04:01:37;;;;;;;8.85;5.50;;;1.90;83.50;;;-0.44;85.25;96482.25;5034644;28;20041;-72
2020/12/19 04:04:03;;;;;;;9.32;5.75;;;1.90;83.40;;;-0.42;85.45;96482.13;5051266;28;20047;-72
2020/12/19 04:06:29;;;;;;;12.52;5.63;;;1.90;83.50;;;-0.43;85.50;96475.31;5050869;28;20039;-72
2020/12/19 04:08:54;;;;;;;13.32;5.03;;;1.80;83.70;;;-0.44;85.96;96477.06;5051464;28;20094;-72
2020/12/19 04:11:20;;;;;;;10.80;5.40;;;1.90;83.60;;;-0.43;85.68;96485.66;5039484;28;20635;-69
2020/12/19 04:13:45;;;;;;;14.23;5.22;;;1.90;83.90;;;-0.43;85.89;96477.91;5080360;28;20029;-69
2020/12/19 04:16:11;;;;;;;8.63;5.40;;;1.90;83.60;;;-0.46;85.72;96473.75;5034384;28;20098;-68
2020/12/19 04:18:37;;;;;;;7.18;5.15;;;1.90;83.60;;;-0.45;85.73;96469.44;5016873;28;20107;-67
2020/12/19 04:21:06;;;;;;;26.55;5.53;;;1.80;83.60;;;-0.45;86.23;96461.69;5050928;28;20127;-66
2020/12/19 04:23:33;;;;;;;15.57;5.35;;;1.80;83.70;;;-0.48;85.92;96454.94;5018051;28;20066;-67
2020/12/19 04:25:59;;;;;;;12.55;6.00;;;1.90;83.60;;;-0.44;85.51;96461.56;5053883;28;20040;-67
2020/12/19 04:28:25;;;;;;;10.60;5.57;;;1.90;83.70;;;-0.46;85.88;96454.84;5066782;28;20028;-68
2020/12/19 04:30:50;;;;;;;9.65;6.03;;;1.80;83.80;;;-0.42;85.63;96453.69;5068903;28;20036;-66
2020/12/19 04:33:16;;;;;;;14.23;6.05;;;1.90;83.80;;;-0.43;85.86;96457.22;5066194;28;20036;-66
2020/12/19 04:35:42;;;;;;;21.15;6.97;;;1.80;83.90;;;-0.46;85.62;96452.25;5070310;28;20031;-67
2020/12/19 04:38:07;;;;;;;9.88;6.15;;;1.90;83.90;;;-0.46;85.71;96462.59;5053569;28;20040;-69
2020/12/19 04:40:33;;;;;;;11.13;5.90;;;1.90;83.90;;;-0.50;85.97;96458.59;5054061;28;20480;-67
2020/12/19 04:42:58;;;;;;;8.70;5.65;;;1.80;83.80;;;-0.48;86.08;96459.28;5057106;28;20047;-67
2020/12/19 04:45:24;;;;;;;19.98;6.35;;;1.90;83.70;;;-0.46;86.25;96452.25;5020957;28;20036;-66
2020/12/19 04:47:49;;;;;;;13.02;6.22;;;1.80;83.50;;;-0.46;85.76;96455.66;5038507;28;20044;-65
2020/12/19 04:50:15;;;;;;;33.55;6.55;;;1.90;83.70;;;-0.48;85.95;96449.78;5055355;28;20051;-66
2020/12/19 04:52:40;;;;;;;49.15;7.90;;;1.70;83.50;;;-0.54;85.68;96452.00;5033771;28;20029;-67
2020/12/19 04:55:06;;;;;;;14.45;7.07;;;1.70;83.80;;;-0.56;85.71;96462.44;5080659;28;20040;-69
2020/12/19 04:57:31;;;;;;;23.10;6.80;;;1.70;84.00;;;-0.61;85.54;96464.56;5054367;28;20063;-69
2020/12/19 04:59:57;;;;;;;14.18;6.05;;;1.60;83.90;;;-0.62;85.90;96463.72;5061145;28;20130;-69
2020/12/19 05:02:23;;;;;;;12.73;5.75;;;1.70;84.00;;;-0.60;86.09;96465.38;5037082;28;20099;-69
2020/12/19 05:04:49;;;;;;;9.30;5.97;;;1.80;83.90;;;-0.58;86.09;96468.66;5053113;28;20070;-69
2020/12/19 05:07:15;;;;;;;13.90;7.60;;;1.80;84.10;;;-0.57;85.90;96465.97;5049922;28;20081;-69
2020/12/19 05:09:44;;;;;;;122.43;11.20;;;1.80;84.00;;;-0.57;85.75;96467.72;5050096;28;20044;-69
2020/12/19 05:12:11;;;;;;;14.35;8.25;;;1.70;83.50;;;-0.58;85.67;96468.66;5042065;28;20040;-72
2020/12/19 05:14:36;;;;;;;17.25;10.20;;;1.70;83.90;;;-0.59;85.62;96465.25;5053507;28;20035;-69
2020/12/19 05:17:03;;;;;;;16.77;10.00;;;1.70;84.00;;;-0.56;86.00;96462.44;5056439;28;20040;-70
2020/12/19 05:19:28;;;;;;;30.75;18.00;;;1.80;84.00;;;-0.55;85.81;96465.84;5047911;28;20518;-70
2020/12/19 05:21:57;;;;;;;12.60;7.15;;;1.80;83.90;;;-0.51;86.33;96473.25;5069663;28;20039;-69
2020/12/19 05:24:31;;;;;;;12.98;6.70;;;1.80;84.20;;;-0.52;86.78;96468.22;5053477;28;20512;-70
2020/12/19 05:26:57;;;;;;;18.33;6.38;;;1.80;83.80;;;-0.53;85.89;96463.97;5026475;28;20125;-70
2020/12/19 05:29:23;;;;;;;15.25;6.30;;;1.80;83.50;;;-0.55;86.08;96473.59;5053049;28;20048;-70
2020/12/19 05:31:57;;;;;;;9.40;6.32;;;1.80;83.60;;;-0.54;86.75;96475.25;5051071;28;20028;-69
2020/12/19 05:34:23;;;;;;;14.00;6.32;;;1.80;83.80;;;-0.53;86.08;96463.97;5062607;28;20032;-67
2020/12/19 05:36:50;;;;;;;17.20;6.93;;;1.80;83.90;;;-0.53;85.47;96466.56;5062314;28;20040;-66
2020/12/19 05:39:15;;;;;;;38.90;6.93;;;1.90;83.60;;;-0.52;86.02;96473.38;5069822;28;20032;-66
2020/12/19 05:41:41;;;;;;;19.58;5.80;;;1.70;83.80;;;-0.56;86.03;96477.94;5048049;28;20055;-67
2020/12/19 05:44:07;;;;;;;16.35;6.05;;;1.70;84.00;;;-0.59;86.07;96477.34;5032571;28;20035;-66
2020/12/19 05:46:34;;;;;;;9.80;6.32;;;1.70;83.80;;;-0.62;86.21;96474.06;5055247;28;20155;-68
2020/12/19 05:49:01;;;;;;;10.95;6.72;;;1.70;83.80;;;-0.62;85.87;96476.63;5055158;28;20085;-69
2020/12/19 05:51:28;;;;;;;22.38;6.85;;;1.70;83.70;;;-0.62;86.08;96473.22;5081004;28;20086;-69
2020/12/19 05:53:53;;;;;;;12.60;6.03;;;1.70;83.50;;;-0.65;86.09;96479.44;5067649;28;20028;-69
2020/12/19 05:56:20;;;;;;;12.10;5.95;;;1.60;84.00;;;-0.67;85.98;96471.00;5016627;28;20051;-68
2020/12/19 05:58:46;;;;;;;9.23;5.95;;;1.60;84.10;;;-0.68;85.99;96479.69;5016814;28;20056;-68
2020/12/19 06:01:14;;;;;;;12.18;6.68;;;1.60;83.90;;;-0.67;85.94;96485.66;5055658;28;20075;-70
2020/12/19 06:03:39;;;;;;;32.88;6.47;;;1.60;84.00;;;-0.69;86.08;96487.50;5050274;28;20107;-69
2020/12/19 06:06:05;;;;;;;11.98;6.93;;;1.60;83.90;;;-0.73;85.65;96484.31;5053576;28;20198;-69
2020/12/19 06:08:30;;;;;;;13.40;6.88;;;1.60;84.20;;;-0.72;86.12;96491.13;5046102;28;20110;-69
2020/12/19 06:10:56;;;;;;;10.85;6.60;;;1.60;84.10;;;-0.70;86.37;96491.84;5069415;28;20165;-69
2020/12/19 06:13:21;;;;;;;42.88;7.78;;;1.60;84.10;;;-0.75;85.79;96493.94;5036550;28;20340;-68
2020/12/19 06:15:52;;;;;;;12.10;6.85;;;1.50;83.90;;;-0.79;86.74;96491.69;5020398;28;20444;-70
2020/12/19 06:18:55;;;;;;;14.90;7.22;;;1.50;84.40;;;-0.81;87.55;96496.16;5062579;28;20036;-69
2020/12/19 06:21:21;;;;;;;29.17;7.28;;;1.40;84.50;;;-0.82;86.14;96497.09;5087763;28;20043;-69
2020/12/19 06:23:46;;;;;;;19.50;6.93;;;1.40;84.40;;;-0.84;86.17;96489.44;5053210;28;20032;-68
2020/12/19 06:26:12;;;;;;;28.35;7.25;;;1.40;84.60;;;-0.86;86.01;96486.16;5069886;28;20036;-70
2020/12/19 06:28:41;;;;;;;10.02;6.75;;;1.50;84.60;;;-0.82;86.93;96492.75;5035996;28;20071;-71
2020/12/19 06:31:08;;;;;;;14.65;6.88;;;1.50;84.70;;;-0.80;86.17;96492.63;5067571;28;20401;-69
2020/12/19 06:33:34;;;;;;;14.45;6.90;;;1.60;84.60;;;-0.77;86.24;96495.81;5049414;28;20039;-69
2020/12/19 06:36:24;;;;;;;12.20;7.82;;;1.60;84.40;;;-0.78;87.55;96491.59;5032798;28;20035;-71
2020/12/19 06:38:55;;;;;;;15.27;6.60;;;1.60;84.20;;;-0.81;86.55;96488.41;5066321;28;20039;-69
2020/12/19 06:41:42;;;;;;;13.27;6.90;;;1.60;84.20;;;-0.76;87.34;96494.06;5036103;28;20020;-69
2020/12/19 06:44:10;;;;;;;35.30;6.95;;;1.50;84.00;;;-0.79;86.01;96494.28;5090297;28;20462;-69
2020/12/19 06:46:36;;;;;;;26.50;7.97;;;1.50;83.80;;;-0.82;85.94;96486.75;5032165;28;20136;-69
2020/12/19 06:49:34;;;;;;;16.50;7.95;;;1.40;84.00;;;-0.84;86.87;96488.63;5060976;28;20450;-69
2020/12/19 06:52:13;;;;;;;15.73;7.03;;;1.40;84.20;;;-0.89;86.87;96491.53;5037414;28;20111;-69
2020/12/19 06:54:43;;;;;;;12.18;7.10;;;1.30;84.30;;;-0.93;86.29;96490.09;5015907;28;20029;-70
2020/12/19 06:57:25;;;;;;;12.13;7.47;;;1.40;84.30;;;-0.89;87.13;96491.53;5021977;28;20033;-65
2020/12/19 06:59:51;;;;;;;12.98;7.40;;;1.40;84.30;;;-0.88;85.99;96493.19;5077269;28;20032;-68
2020/12/19 07:02:24;;;;;;;13.15;8.00;;;1.40;84.30;;;-0.85;86.13;96490.38;5077036;28;20040;-68
2020/12/19 07:04:51;;;;;;;10.25;6.70;;;1.50;84.30;;;-0.85;86.27;96497.31;5069305;28;20028;-68
2020/12/19 07:07:26;;;;;;;20.75;6.70;;;1.50;84.00;;;-0.89;86.45;96494.13;5046268;28;20484;-68
2020/12/19 07:10:00;;;;;;;30.92;8.15;;;1.40;84.10;;;-0.87;86.41;96500.00;5051926;28;20081;-68
2020/12/19 07:12:38;;;;;;;16.67;7.88;;;1.40;84.00;;;-0.86;86.81;96496.47;5048282;28;20045;-65
2020/12/19 07:15:07;;;;;;;30.27;8.57;;;1.50;83.90;;;-0.85;85.98;96503.28;5069794;28;20119;-68
2020/12/19 07:17:48;;;;;;;18.88;6.95;;;1.50;84.00;;;-0.83;86.89;96503.19;5072878;28;20762;-70
2020/12/19 07:20:20;;;;;;;65.03;7.50;;;1.60;83.80;;;-0.84;86.60;96504.94;5049346;28;20040;-71
2020/12/19 07:22:46;;;;;;;12.70;6.47;;;1.50;83.60;;;-0.82;86.15;96510.00;5036878;28;20037;-68
2020/12/19 07:25:11;;;;;;;10.10;6.75;;;1.50;83.90;;;-0.83;85.94;96516.91;5074195;28;20188;-70
2020/12/19 07:27:37;;;;;;;73.55;8.55;;;1.50;83.80;;;-0.82;86.09;96513.41;5064093;28;20066;-69
2020/12/19 07:30:03;;;;;;;30.83;15.40;;;1.50;83.20;;;-0.87;85.88;96515.50;5085858;28;20040;-67
2020/12/19 07:32:28;;;;;;;18.55;10.98;;;1.50;83.40;;;-0.89;86.18;96507.03;5052129;28;20583;-68
2020/12/19 07:34:57;;;;;;;12.13;7.47;;;1.50;83.40;;;-0.87;86.42;96512.91;5058183;28;20044;-69
2020/12/19 07:37:23;;;;;;;10.18;6.30;;;1.40;83.50;;;-0.89;86.38;96511.38;5073973;28;20173;-69
2020/12/19 07:39:50;;;;;;;13.05;8.10;;;1.50;83.80;;;-0.85;86.43;96515.38;5033912;28;20103;-69
2020/12/19 07:42:16;;;;;;;13.48;7.43;;;1.50;83.80;;;-0.81;85.83;96511.66;5072772;28;20036;-69
2020/12/19 07:44:41;;;;;;;21.98;7.95;;;1.60;83.50;;;-0.80;85.80;96515.88;5039291;28;20093;-70
2020/12/19 07:47:12;;;;;;;12.25;6.38;;;1.60;82.90;;;-0.83;85.80;96516.91;5055376;28;20396;-68
2020/12/19 07:49:46;;;;;;;21.75;6.95;;;1.50;82.50;;;-0.87;86.01;96512.91;5055964;28;20439;-68
2020/12/19 07:52:22;;;;;;;11.15;5.95;;;1.40;82.50;;;-0.87;86.39;96519.84;5054685;28;20515;-68
2020/12/19 07:55:05;;;;;;;24.17;6.25;;;1.40;82.70;;;-0.88;86.64;96528.50;5071360;28;20048;-70
2020/12/19 07:57:32;;;;;;;17.00;6.65;;;1.40;82.90;;;-0.89;85.90;96527.69;5071079;28;20417;-68
2020/12/19 07:59:58;;;;;;;15.88;6.20;;;1.30;83.00;;;-0.90;85.93;96527.81;5037893;28;20082;-67
2020/12/19 08:02:24;;;;;;;11.07;6.60;;;1.40;83.20;;;-0.90;85.79;96530.38;5047908;28;20044;-67
2020/12/19 08:04:55;;;;;;;11.23;6.60;;;1.40;82.90;;;-0.90;85.94;96525.22;5069146;28;20502;-67
2020/12/19 08:07:26;;;;;;;15.13;6.75;;;1.50;82.90;;;-0.86;86.16;96531.81;5040575;28;20166;-67
2020/12/19 08:09:59;;;;;;;;;;;1.50;82.90;;;-0.84;86.35;96528.19;5055284;28;20047;-67
2020/12/19 08:12:26;;;;;;;16.27;6.55;;;1.60;82.80;;;-0.82;85.53;96538.41;5048390;28;19994;-67
2020/12/19 08:14:52;;;;;;;11.05;6.93;;;1.50;82.80;;;-0.80;85.91;96532.19;5034505;28;20437;-67
2020/12/19 08:17:17;;;;;;;16.98;6.97;;;1.60;83.10;;;-0.79;85.54;96533.03;5074887;28;20035;-67
2020/12/19 08:19:49;;;;;;;10.70;6.68;;;1.50;82.80;;;-0.78;86.10;96532.91;5071398;28;20036;-66
2020/12/19 08:22:14;;;;;;;16.83;9.70;;;1.60;82.80;;;-0.77;85.62;96526.81;5044597;28;20061;-70
2020/12/19 08:24:45;;;;;;;24.35;14.30;;;1.60;82.80;;;-0.75;85.94;96527.53;5052390;28;20085;-67
2020/12/19 08:27:46;;;;;;;19.50;8.30;;;1.70;83.00;;;-0.71;86.10;96526.38;5057367;28;20033;-69
2020/12/19 08:30:27;;;;;;;26.33;7.07;;;1.60;82.50;;;-0.71;86.08;96530.72;5072238;28;20079;-67
2020/12/19 08:32:58;;;;;;;25.20;8.30;;;1.60;82.70;;;-0.71;85.64;96528.94;5069565;28;20573;-66
2020/12/19 08:35:35;;;;;;;29.27;8.23;;;1.50;82.80;;;-0.73;86.08;96533.41;5068810;28;20114;-66
2020/12/19 08:38:24;;;;;;;19.95;10.07;;;1.50;83.00;;;-0.77;86.49;96537.13;5060418;28;20117;-66
2020/12/19 08:40:51;;;;;;;41.67;7.30;;;1.50;83.10;;;-0.80;85.46;96537.34;5060134;28;20040;-66
2020/12/19 08:43:18;;;;;;;22.77;7.78;;;1.40;82.90;;;-0.80;85.39;96542.53;5052546;28;20043;-66
2020/12/19 08:45:45;;;;;;;37.30;8.52;;;1.50;82.90;;;-0.81;85.55;96548.63;5060215;28;20040;-66
2020/12/19 08:48:19;;;;;;;16.88;9.95;;;1.40;83.10;;;-0.78;86.52;96540.66;5050482;28;20037;-66
2020/12/19 08:50:45;;;;;;;12.93;7.45;;;1.60;83.30;;;-0.74;85.64;96536.09;5049961;28;20490;-66
2020/12/19 08:53:25;;;;;;;14.32;7.53;;;1.60;83.10;;;-0.68;86.57;96541.69;5046094;28;20112;-67
2020/12/19 08:55:53;;;;;;;13.40;8.25;;;1.70;83.20;;;-0.62;86.27;96537.81;5050632;28;20167;-66
2020/12/19 08:58:27;;;;;;;24.17;8.60;;;1.80;82.90;;;-0.56;85.85;96544.31;5001224;28;20032;-67
2020/12/19 09:01:08;;;;;;;13.80;8.25;;;1.80;82.30;;;-0.54;86.08;96538.09;5050365;28;20028;-67
2020/12/19 09:03:34;;;;;;;37.15;8.13;;;1.90;82.50;;;-0.51;85.71;96547.38;5054140;28;20040;-68
2020/12/19 09:06:04;;;;;;;30.85;7.90;;;1.90;81.70;;;-0.52;85.77;96545.72;5068858;28;20040;-68
2020/12/19 09:08:45;;;;;;;32.83;8.85;;;1.80;81.90;;;-0.49;85.56;96548.09;5036334;28;20039;-67
2020/12/19 09:11:27;;;;;;;21.70;8.52;;;1.90;82.10;;;-0.42;85.88;96551.91;5052527;28;20040;-67
2020/12/19 09:14:10;;;;;;;11.48;7.65;;;2.00;82.00;;;-0.39;86.20;96551.69;5067296;28;20107;-67
2020/12/19 09:16:45;;;;;;;15.27;7.93;;;2.10;82.00;;;-0.31;86.07;96557.09;5049564;28;20593;-67
2020/12/19 09:19:15;;;;;;;12.52;7.60;;;2.10;81.90;;;-0.27;85.82;96549.94;5052201;28;20039;-67
2020/12/19 09:21:51;;;;;;;13.30;8.00;;;2.20;81.60;;;-0.23;85.32;96557.38;5059587;28;20040;-67
2020/12/19 09:24:17;;;;;;;12.75;7.70;;;2.20;81.20;;;-0.16;85.32;96556.00;5046699;28;20035;-67
2020/12/19 09:26:45;;;;;;;20.08;11.48;;;2.30;81.70;;;-0.10;85.47;96558.13;5049840;28;20431;-68
2020/12/19 09:29:11;;;;;;;18.45;9.73;;;2.40;82.00;;;-0.05;85.34;96556.03;5041532;28;20041;-67
2020/12/19 09:31:37;;;;;;;23.25;13.25;;;2.40;81.40;;;0.03;85.69;96552.06;5048709;28;20403;-67
2020/12/19 09:34:03;;;;;;;16.33;9.48;;;2.60;82.00;;;0.07;85.24;96558.66;5030789;28;20040;-67
2020/12/19 09:36:28;;;;;;;35.65;20.80;;;2.60;80.70;;;0.13;85.65;96545.28;5070496;28;20042;-69
2020/12/19 09:38:54;;;;;;;21.05;12.35;;;2.70;81.30;;;0.16;84.82;96548.44;5031050;28;20044;-68
2020/12/19 09:41:19;;;;;;;21.65;8.13;;;2.70;80.10;;;0.15;84.98;96549.38;5031620;28;20111;-68
2020/12/19 09:43:45;;;;;;;12.38;7.13;;;2.60;79.80;;;0.18;84.98;96553.50;5086144;28;20020;-69
2020/12/19 09:46:14;;;;;;;19.05;7.85;;;2.60;79.90;;;0.16;85.07;96547.63;5059664;28;20078;-69
2020/12/19 09:48:40;;;;;;;21.13;7.82;;;2.60;79.80;;;0.18;84.82;96538.00;5018873;28;20048;-69
2020/12/19 09:51:06;;;;;;;12.45;7.13;;;2.60;80.00;;;0.24;85.21;96542.72;5037390;28;20048;-68
2020/12/19 09:53:32;;;;;;;17.73;10.25;;;2.70;80.30;;;0.31;84.90;96549.09;5072103;28;20155;-70
2020/12/19 09:55:57;;;;;;;13.25;8.00;;;2.70;80.30;;;0.31;84.91;96541.31;5050274;28;20086;-69
2020/12/19 09:58:23;;;;;;;12.38;7.20;;;2.70;79.60;;;0.31;84.52;96543.91;5051175;28;20051;-69
2020/12/19 10:00:48;;;;;;;15.68;8.23;;;2.70;79.80;;;0.35;84.41;96541.91;5067555;28;20044;-69
2020/12/19 10:03:14;;;;;;;13.75;7.35;;;2.80;79.50;;;0.38;84.45;96542.50;5069065;28;20132;-68
2020/12/19 10:05:39;;;;;;;11.30;6.93;;;2.70;79.30;;;0.37;84.48;96540.84;5053487;28;20730;-69
2020/12/19 10:08:06;;;;;;;11.88;7.32;;;2.80;79.10;;;0.38;84.75;96536.50;5084964;28;20040;-68
2020/12/19 10:10:34;;;;;;;12.70;7.80;;;2.80;79.20;;;0.38;84.27;96542.50;5070098;28;20051;-68
2020/12/19 10:13:02;;;;;;;13.35;7.35;;;2.80;79.00;;;0.46;84.72;96540.19;5068828;28;20032;-69
2020/12/19 10:15:28;;;;;;;13.38;6.72;;;2.90;79.80;;;0.42;84.53;96532.72;5088437;28;20044;-68
2020/12/19 10:17:54;;;;;;;10.85;6.57;;;2.70;78.90;;;0.35;84.04;96527.22;5086330;28;20111;-69
2020/12/19 10:20:19;;;;;;;11.23;6.45;;;2.70;78.90;;;0.39;84.32;96523.44;5070149;28;20494;-69
2020/12/19 10:22:46;;;;;;;13.65;6.97;;;2.70;79.00;;;0.35;83.95;96526.38;5053261;28;20055;-69